DNIL

Ilorin International Airport

Airport
ICAO code
DNIL
IATA Code
ILR
Summary
ICAO Region
AFI
ICAO Territory
Location

Obansunwa, Kwara State

Serving
Ilorin
Elevation
1126 ft
Coordinates
8° 26' 25" N , 4° 29' 40" E
KCC
Metar
Observation
DNIL 311900Z 01004KT CAVOK 30/08 Q1010
Station
Ilorin
Date/Time
2023-01-31 20:00:00
Wind direction
10°
Wind speed
04 kts
Lowest cloud amount
clouds and visibility OK
Temperature
30°C
Dew point
8°C
Humidity
25%
QNH
1010 hPa
Weather condition
n/a

Ilorin International Airport is an airport serving Ilorin, a city in Kwara State of Nigeria.

Climatology

Tropical savanna climate (Köppen climate classification Aw)

Runways

Designator Length Width Surface Rops
5/23 3100 60 ASP No/No

Airport map

Aerial View

SKYbrary Partners:

Safety knowledge contributed by: